Аэропорт: Шпаковское. Ставрополь

ICAO: URMT

METAR:
2019-12-12 10:30:00
URMT 121030Z 12004MPS 4000 BR BCFG SCT004 00/00 Q1016 R07/190060 NOSIG RMK QFE722
METAR:
2019-12-12 08:00:00
TAF URMT 120800Z 1209/1218 15003G08MPS 0800 FZFG OVC002 TEMPO 1209/1212 0100 FZFG OVC001 FM121200 12005G11MPS 3100 BR SCT005 BKN020